Time;durP1;ratioP1;P1;durP2;ratioP2;P2;SDS_P1;SDS_P2;PMS_P1;PMS_P2;Temp;Humidity;BMP_temperature;BMP_pressure;BME280_temperature;BME280_humidity;BME280_pressure;Samples;Min_cycle;Max_cycle;Signal;HPM_P1;HPM_P2
2023/03/22 00:01:21;;;;;;;25.17;10.48;;;9.30;99.90;;;;;;5052690;28;20503;-79
2023/03/22 00:03:49;;;;;;;27.73;11.07;;;9.30;99.90;;;;;;5052122;28;20403;-80
2023/03/22 00:06:17;;;;;;;29.50;11.77;;;9.30;99.90;;;;;;5052433;28;20136;-80
2023/03/22 00:08:43;;;;;;;25.48;10.52;;;9.30;99.90;;;;;;5053846;28;20091;-80
2023/03/22 00:11:11;;;;;;;32.47;11.02;;;9.40;99.90;;;;;;5052165;28;20041;-80
2023/03/22 00:13:36;;;;;;;25.90;10.32;;;9.30;99.90;;;;;;5053614;28;20049;-80
2023/03/22 00:16:04;;;;;;;31.45;10.80;;;9.40;99.90;;;;;;5052462;28;20044;-80
2023/03/22 00:18:30;;;;;;;30.02;9.70;;;9.40;99.90;;;;;;5052346;28;20056;-80
2023/03/22 00:20:58;;;;;;;26.95;8.43;;;9.30;99.90;;;;;;5052054;28;20041;-80
2023/03/22 00:23:25;;;;;;;24.70;9.40;;;9.40;99.90;;;;;;5052021;28;20045;-80
2023/03/22 00:25:51;;;;;;;26.75;9.25;;;9.40;99.90;;;;;;5052064;28;20427;-80
2023/03/22 00:28:17;;;;;;;26.15;9.73;;;9.30;99.90;;;;;;5052270;28;20477;-80
2023/03/22 00:31:08;;;;;;;26.83;10.18;;;9.30;99.90;;;;;;5052110;28;20163;-79
2023/03/22 00:33:34;;;;;;;28.75;9.30;;;9.30;99.90;;;;;;5052574;28;20068;-80
2023/03/22 00:36:09;;;;;;;24.52;8.82;;;9.30;99.90;;;;;;5052049;28;20120;-80
2023/03/22 00:38:38;;;;;;;23.38;8.48;;;9.30;99.90;;;;;;5052036;28;20052;-80
2023/03/22 00:41:09;;;;;;;27.70;10.75;;;9.20;99.90;;;;;;5052376;28;20060;-80
2023/03/22 00:43:35;;;;;;;32.03;9.70;;;9.20;99.90;;;;;;5052045;28;20037;-80
2023/03/22 00:46:00;;;;;;;25.90;8.82;;;9.20;99.90;;;;;;5051838;28;20056;-80
2023/03/22 00:48:26;;;;;;;23.45;8.80;;;9.20;99.90;;;;;;5053383;28;20076;-80
2023/03/22 00:50:52;;;;;;;22.25;7.82;;;9.20;99.90;;;;;;5053061;28;20041;-80
2023/03/22 00:53:17;;;;;;;20.05;9.02;;;9.20;99.90;;;;;;5052139;28;20041;-80
2023/03/22 00:55:43;;;;;;;21.33;7.90;;;9.20;99.90;;;;;;5053147;28;20041;-80
2023/03/22 00:58:08;;;;;;;23.15;8.10;;;9.20;99.90;;;;;;5057036;28;20384;-80
2023/03/22 01:00:34;;;;;;;26.52;8.80;;;9.20;99.90;;;;;;5055631;28;20056;-79
2023/03/22 01:03:03;;;;;;;27.20;8.63;;;9.20;99.90;;;;;;5063104;28;20056;-80
2023/03/22 01:05:32;;;;;;;29.67;7.18;;;9.10;99.90;;;;;;5076835;28;20045;-80
2023/03/22 01:08:07;;;;;;;22.38;6.70;;;9.10;99.90;;;;;;5058978;28;20119;-79
2023/03/22 01:10:37;;;;;;;21.73;6.32;;;9.10;99.90;;;;;;5058880;28;20044;-80
2023/03/22 01:13:03;;;;;;;15.07;6.28;;;9.10;99.90;;;;;;5076839;28;20222;-80
2023/03/22 01:15:29;;;;;;;19.58;7.00;;;9.10;99.90;;;;;;5058533;28;20048;-79
2023/03/22 01:17:55;;;;;;;30.48;6.75;;;9.10;99.90;;;;;;5058781;28;20063;-79
2023/03/22 01:20:21;;;;;;;23.77;7.10;;;9.10;99.90;;;;;;5076492;28;20222;-80
2023/03/22 01:22:46;;;;;;;18.98;5.70;;;9.00;99.90;;;;;;5058903;28;20391;-80
2023/03/22 01:25:13;;;;;;;15.63;5.40;;;9.10;99.90;;;;;;5058642;28;20490;-80
2023/03/22 01:27:38;;;;;;;16.80;5.45;;;9.10;99.90;;;;;;5058583;28;20446;-80
2023/03/22 01:30:06;;;;;;;20.77;5.70;;;9.00;99.90;;;;;;5058617;28;20448;-80
2023/03/22 01:32:32;;;;;;;21.58;5.18;;;9.00;99.90;;;;;;5058366;28;20049;-80
2023/03/22 01:34:57;;;;;;;15.07;4.60;;;9.00;99.90;;;;;;5058276;28;20479;-80
2023/03/22 01:37:26;;;;;;;17.92;4.97;;;9.00;99.90;;;;;;5058325;28;20066;-80
2023/03/22 01:39:55;;;;;;;16.23;4.85;;;9.00;99.90;;;;;;5058515;28;20052;-80
2023/03/22 01:42:22;;;;;;;21.05;4.55;;;9.00;99.90;;;;;;5058353;28;20136;-80
2023/03/22 01:45:12;;;;;;;17.08;3.58;;;8.90;99.90;;;;;;5058254;28;20049;-80
2023/03/22 01:47:42;;;;;;;15.80;4.03;;;9.00;99.90;;;;;;5076688;28;20053;-80
2023/03/22 01:50:08;;;;;;;22.38;4.97;;;9.00;99.90;;;;;;5058136;28;20048;-80
2023/03/22 01:52:36;;;;;;;18.02;3.58;;;9.00;99.90;;;;;;5075832;28;20551;-79
2023/03/22 01:55:05;;;;;;;15.05;3.30;;;8.90;99.90;;;;;;5075735;28;20052;-80
2023/03/22 01:57:36;;;;;;;7.65;2.95;;;8.90;99.90;;;;;;5076000;28;20085;-80
2023/03/22 02:00:08;;;;;;;18.95;5.32;;;8.90;99.90;;;;;;5057853;28;20080;-80
2023/03/22 02:02:36;;;;;;;10.80;2.80;;;8.90;99.90;;;;;;5057937;28;20040;-80
2023/03/22 02:05:05;;;;;;;11.23;2.65;;;8.90;99.90;;;;;;5057720;28;20060;-80
2023/03/22 02:07:31;;;;;;;17.02;4.22;;;8.90;99.90;;;;;;5057360;28;20045;-80
2023/03/22 02:09:58;;;;;;;18.13;2.50;;;8.90;99.90;;;;;;5057660;28;20083;-80
2023/03/22 02:12:58;;;;;;;18.33;2.58;;;8.90;99.90;;;;;;5075490;28;20044;-80
2023/03/22 02:15:42;;;;;;;13.82;2.97;;;8.80;99.90;;;;;;5075386;28;20808;-80
2023/03/22 02:18:15;;;;;;;9.35;2.97;;;8.80;99.90;;;;;;5057789;28;20533;-80
2023/03/22 02:21:02;;;;;;;;;;;8.80;99.90;;;;;;5057978;28;20051;-80
2023/03/22 02:24:19;;;;;;;14.65;3.08;;;8.80;99.90;;;;;;5057547;28;19943;-80
2023/03/22 02:27:15;;;;;;;12.23;2.65;;;8.80;99.90;;;;;;5057396;28;20049;-80
2023/03/22 02:29:47;;;;;;;14.38;2.33;;;8.80;99.90;;;;;;5075305;28;20032;-80
2023/03/22 02:32:52;;;;;;;10.90;2.53;;;8.80;99.90;;;;;;5057296;28;20048;-80
2023/03/22 02:35:35;;;;;;;22.23;3.38;;;8.80;99.90;;;;;;5057347;28;20484;-80
2023/03/22 02:38:29;;;;;;;;;;;8.90;99.90;;;;;;5075664;28;20059;-80
2023/03/22 02:41:09;;;;;;;18.08;3.90;;;8.90;99.90;;;;;;5075045;28;19921;-80
2023/03/22 02:44:03;;;;;;;10.32;2.85;;;8.80;99.90;;;;;;5057018;28;20037;-80
2023/03/22 02:46:47;;;;;;;16.00;2.88;;;8.90;99.90;;;;;;5075093;28;20491;-80
2023/03/22 02:49:29;;;;;;;14.32;2.67;;;8.90;99.90;;;;;;5056936;28;20078;-80
2023/03/22 02:52:05;;;;;;;14.40;2.92;;;8.90;99.90;;;;;;5057410;28;20080;-80
2023/03/22 02:54:46;;;;;;;16.08;2.78;;;8.90;99.90;;;;;;5074822;28;20049;-80
2023/03/22 02:57:27;;;;;;;9.60;2.30;;;9.00;99.90;;;;;;5057710;28;20040;-80
2023/03/22 02:59:53;;;;;;;13.48;3.20;;;8.90;99.90;;;;;;5075132;28;20044;-80
2023/03/22 03:02:20;;;;;;;17.38;3.15;;;9.00;99.90;;;;;;5074582;28;20049;-80
2023/03/22 03:04:49;;;;;;;17.55;3.63;;;9.00;99.90;;;;;;5074822;28;20049;-80
2023/03/22 03:07:21;;;;;;;8.77;2.17;;;9.00;99.90;;;;;;5056687;28;20488;-80
2023/03/22 03:09:47;;;;;;;16.63;2.92;;;9.00;99.90;;;;;;5056778;28;20097;-80
2023/03/22 03:12:20;;;;;;;14.82;3.03;;;9.10;99.90;;;;;;5056676;28;20043;-80
2023/03/22 03:14:46;;;;;;;14.73;3.00;;;9.10;99.90;;;;;;5056527;28;20106;-80
2023/03/22 03:18:03;;;;;;;16.73;2.45;;;9.10;99.90;;;;;;5074278;28;20426;-80
2023/03/22 03:21:10;;;;;;;15.55;2.30;;;9.20;99.90;;;;;;4992255;28;20181;-80
2023/03/22 03:23:53;;;;;;;15.48;2.30;;;9.20;99.90;;;;;;4935004;28;20058;-80
2023/03/22 03:26:43;;;;;;;16.00;3.42;;;9.20;99.90;;;;;;5052943;28;20056;-80
2023/03/22 03:29:39;;;;;;;24.02;5.28;;;9.20;99.90;;;;;;5056451;28;20079;-80
2023/03/22 03:32:16;;;;;;;10.38;3.10;;;9.20;99.90;;;;;;5056280;28;20044;-80
2023/03/22 03:34:56;;;;;;;10.82;2.30;;;9.30;99.90;;;;;;5056142;28;20115;-80
2023/03/22 03:37:28;;;;;;;15.38;2.88;;;9.30;99.90;;;;;;5056275;28;20466;-80
2023/03/22 03:40:00;;;;;;;18.90;4.20;;;9.30;99.90;;;;;;5056445;28;20178;-80
2023/03/22 03:42:28;;;;;;;13.38;2.88;;;9.30;99.90;;;;;;5056321;28;20471;-80
2023/03/22 03:44:55;;;;;;;10.88;2.70;;;9.30;99.90;;;;;;5056097;28;20114;-80
2023/03/22 03:47:21;;;;;;;17.52;2.90;;;9.30;99.90;;;;;;5055992;28;20041;-80
2023/03/22 03:49:47;;;;;;;15.07;3.05;;;9.30;99.90;;;;;;5074141;28;20121;-80
2023/03/22 03:52:13;;;;;;;11.30;3.60;;;9.30;99.90;;;;;;5055864;28;20515;-80
2023/03/22 03:54:39;;;;;;;20.05;3.42;;;9.30;99.90;;;;;;5073710;28;20040;-80
2023/03/22 03:57:05;;;;;;;20.55;3.00;;;9.40;99.90;;;;;;5056235;28;20051;-80
2023/03/22 03:59:31;;;;;;;13.95;3.17;;;9.40;99.90;;;;;;5073722;28;20040;-80
2023/03/22 04:01:56;;;;;;;16.65;3.00;;;9.40;99.90;;;;;;5073942;28;20054;-80
2023/03/22 04:04:26;;;;;;;14.75;2.80;;;9.30;99.90;;;;;;5073500;28;20151;-80
2023/03/22 04:06:55;;;;;;;14.85;3.35;;;9.30;99.90;;;;;;5073718;28;20040;-80
2023/03/22 04:09:26;;;;;;;10.32;2.63;;;9.30;99.90;;;;;;5073680;28;20044;-80
2023/03/22 04:11:52;;;;;;;14.95;3.40;;;9.40;99.90;;;;;;5055906;28;20056;-80
2023/03/22 04:14:18;;;;;;;16.00;3.00;;;9.40;99.90;;;;;;5073399;28;20395;-80
2023/03/22 04:16:44;;;;;;;17.45;3.60;;;9.40;99.90;;;;;;5055436;28;20479;-80
2023/03/22 04:19:09;;;;;;;23.00;3.85;;;9.30;99.90;;;;;;5055538;28;20055;-80
2023/03/22 04:21:35;;;;;;;20.35;2.88;;;9.40;99.90;;;;;;5055750;28;20041;-80
2023/03/22 04:24:02;;;;;;;16.45;3.33;;;9.40;99.90;;;;;;5055609;28;20475;-80
2023/03/22 04:26:27;;;;;;;16.60;4.25;;;9.40;99.90;;;;;;5073481;28;20052;-80
2023/03/22 04:28:53;;;;;;;23.45;3.97;;;9.40;99.90;;;;;;5055648;28;20041;-80
2023/03/22 04:31:18;;;;;;;14.60;2.60;;;9.40;99.90;;;;;;5058145;28;20048;-80
2023/03/22 04:33:45;;;;;;;16.17;3.25;;;9.40;99.90;;;;;;5077543;28;20044;-80
2023/03/22 04:36:16;;;;;;;15.10;3.90;;;9.40;99.90;;;;;;5059483;28;20049;-80
2023/03/22 04:38:42;;;;;;;17.00;4.30;;;9.40;99.90;;;;;;5059546;28;20136;-80
2023/03/22 04:41:08;;;;;;;19.98;3.67;;;9.40;99.90;;;;;;5059443;28;20091;-80
2023/03/22 04:43:34;;;;;;;21.60;4.28;;;9.40;99.90;;;;;;5059421;28;20472;-80
2023/03/22 04:46:03;;;;;;;12.35;3.13;;;9.30;99.90;;;;;;5059215;28;20040;-80
2023/03/22 04:48:29;;;;;;;16.23;3.97;;;9.40;99.90;;;;;;5059106;28;20040;-80
2023/03/22 04:50:55;;;;;;;20.17;4.13;;;9.30;99.90;;;;;;5059336;28;20045;-80
2023/03/22 04:53:26;;;;;;;18.77;4.05;;;9.30;99.90;;;;;;5059584;28;20059;-80
2023/03/22 04:55:55;;;;;;;15.43;3.70;;;9.30;99.90;;;;;;5077095;28;20446;-80
2023/03/22 04:58:23;;;;;;;12.45;4.18;;;9.30;99.90;;;;;;5059276;28;20040;-80
2023/03/22 05:00:51;;;;;;;16.00;5.68;;;9.30;99.90;;;;;;5077085;28;20115;-80
2023/03/22 05:03:19;;;;;;;15.57;4.72;;;9.40;99.90;;;;;;5076762;28;20098;-80
2023/03/22 05:06:00;;;;;;;14.48;4.97;;;9.30;99.90;;;;;;5059031;28;20410;-80
2023/03/22 05:08:27;;;;;;;18.63;5.78;;;9.40;99.90;;;;;;5077009;28;20048;-80
2023/03/22 05:10:54;;;;;;;14.30;5.20;;;9.40;99.90;;;;;;5077237;28;20495;-80
2023/03/22 05:13:22;;;;;;;22.13;6.60;;;9.40;99.90;;;;;;5059032;28;20059;-80
2023/03/22 05:15:48;;;;;;;17.58;5.20;;;9.40;99.90;;;;;;5058754;28;20041;-80
2023/03/22 05:18:26;;;;;;;16.88;6.07;;;9.40;99.90;;;;;;5058873;28;20055;-80
2023/03/22 05:20:56;;;;;;;16.67;6.47;;;9.40;99.90;;;;;;5058917;28;20098;-80
2023/03/22 05:23:22;;;;;;;21.27;6.63;;;9.40;99.90;;;;;;5058841;28;20043;-80
2023/03/22 05:25:50;;;;;;;18.02;6.15;;;9.50;99.90;;;;;;5058570;28;20054;-80
2023/03/22 05:28:21;;;;;;;16.27;5.88;;;9.40;99.90;;;;;;5058444;28;20075;-80
2023/03/22 05:30:48;;;;;;;19.70;6.00;;;9.50;99.90;;;;;;5058639;28;20083;-80
2023/03/22 05:33:15;;;;;;;16.98;6.40;;;9.40;99.90;;;;;;5076407;28;20052;-80
2023/03/22 05:35:41;;;;;;;18.77;7.68;;;9.40;99.90;;;;;;5058754;28;20052;-80
2023/03/22 05:38:08;;;;;;;23.35;7.60;;;9.40;99.90;;;;;;5058498;28;20094;-80
2023/03/22 05:40:33;;;;;;;17.65;6.75;;;9.50;99.90;;;;;;5076257;28;20037;-80
2023/03/22 05:42:59;;;;;;;15.95;7.07;;;9.40;99.90;;;;;;5057739;28;20412;-80
2023/03/22 05:45:25;;;;;;;20.55;7.65;;;9.40;99.90;;;;;;5058187;28;20119;-80
2023/03/22 05:47:52;;;;;;;23.58;8.35;;;9.40;99.90;;;;;;5057581;28;20190;-80
2023/03/22 05:50:20;;;;;;;21.17;8.35;;;9.50;99.90;;;;;;5057903;28;20045;-79
2023/03/22 05:52:46;;;;;;;23.27;8.75;;;9.50;99.90;;;;;;5058216;28;20041;-80
2023/03/22 05:55:16;;;;;;;25.35;9.18;;;9.40;99.90;;;;;;5057827;28;20063;-80
2023/03/22 05:57:42;;;;;;;22.20;8.93;;;9.50;99.90;;;;;;5057729;28;20051;-80
2023/03/22 06:00:12;;;;;;;23.55;8.98;;;9.50;99.90;;;;;;5057699;28;20053;-80
2023/03/22 06:02:53;;;;;;;21.15;8.90;;;9.50;99.90;;;;;;5057782;28;20557;-80
2023/03/22 06:05:19;;;;;;;27.13;9.00;;;9.50;99.90;;;;;;5057638;28;20059;-80
2023/03/22 06:07:45;;;;;;;27.45;8.70;;;9.50;99.90;;;;;;5057665;28;20426;-80
2023/03/22 06:10:13;;;;;;;26.50;10.13;;;9.50;99.90;;;;;;5057586;28;20472;-80
2023/03/22 06:12:39;;;;;;;24.92;9.43;;;9.50;99.90;;;;;;5056195;28;20041;-79
2023/03/22 06:15:08;;;;;;;24.65;10.85;;;9.50;99.90;;;;;;5037579;28;20036;-80
2023/03/22 06:17:34;;;;;;;26.92;10.35;;;9.50;99.90;;;;;;5037450;28;20100;-80
2023/03/22 06:20:00;;;;;;;24.27;11.07;;;9.50;99.90;;;;;;5055487;28;20045;-80
2023/03/22 06:22:25;;;;;;;30.92;11.80;;;9.50;99.90;;;;;;5037766;28;20041;-80
2023/03/22 06:24:51;;;;;;;25.38;10.07;;;9.50;99.90;;;;;;5037505;28;20051;-81
2023/03/22 06:27:17;;;;;;;31.33;10.98;;;9.50;99.90;;;;;;5037635;28;20049;-81
2023/03/22 06:29:43;;;;;;;28.05;12.70;;;9.50;99.90;;;;;;5037136;28;20545;-81
2023/03/22 06:32:09;;;;;;;32.90;11.38;;;9.50;99.90;;;;;;5037270;28;20053;-81
2023/03/22 06:34:35;;;;;;;26.77;11.10;;;9.50;99.90;;;;;;5037300;28;20094;-81
2023/03/22 06:37:01;;;;;;;25.95;11.25;;;9.40;99.90;;;;;;5037389;28;20049;-81
2023/03/22 06:39:27;;;;;;;31.40;12.45;;;9.40;99.90;;;;;;5055178;28;20045;-81
2023/03/22 06:41:52;;;;;;;31.65;12.65;;;9.50;99.90;;;;;;5036961;28;20045;-81
2023/03/22 06:44:18;;;;;;;31.25;12.57;;;9.40;99.90;;;;;;5036972;28;20045;-81
2023/03/22 06:46:44;;;;;;;34.40;12.88;;;9.40;99.90;;;;;;5054806;28;20044;-81
2023/03/22 06:49:10;;;;;;;32.42;13.80;;;9.40;99.90;;;;;;5054857;28;20037;-81
2023/03/22 06:51:35;;;;;;;33.30;13.80;;;9.50;99.90;;;;;;5054736;28;20060;-81
2023/03/22 06:54:01;;;;;;;31.27;12.68;;;9.50;99.90;;;;;;5035784;28;20088;-81
2023/03/22 06:56:27;;;;;;;30.92;14.57;;;9.50;99.90;;;;;;5037051;28;20103;-81
2023/03/22 06:58:56;;;;;;;27.70;13.45;;;9.50;99.90;;;;;;5036675;28;20041;-80
2023/03/22 07:01:23;;;;;;;30.83;14.90;;;9.50;99.90;;;;;;5036854;28;20171;-81
2023/03/22 07:03:49;;;;;;;26.08;13.70;;;9.50;99.90;;;;;;5036429;28;20056;-81
2023/03/22 07:06:14;;;;;;;34.45;14.25;;;9.50;99.90;;;;;;5036581;28;20055;-81
2023/03/22 07:08:40;;;;;;;35.25;16.13;;;9.50;99.90;;;;;;5036494;28;20131;-81
2023/03/22 07:11:06;;;;;;;30.20;14.02;;;9.60;99.90;;;;;;5054322;28;20037;-81
2023/03/22 07:13:32;;;;;;;36.30;13.77;;;9.60;99.90;;;;;;5036706;28;20076;-80
2023/03/22 07:15:59;;;;;;;37.53;15.30;;;9.60;99.90;;;;;;5036233;28;20075;-81
2023/03/22 07:18:27;;;;;;;36.58;15.90;;;9.70;99.90;;;;;;5036365;28;20051;-81
2023/03/22 07:20:52;;;;;;;33.00;15.40;;;9.60;99.90;;;;;;5036314;28;20041;-81
2023/03/22 07:23:18;;;;;;;39.97;15.43;;;9.70;99.90;;;;;;5036594;28;20052;-81
2023/03/22 07:25:45;;;;;;;35.00;15.10;;;9.70;99.90;;;;;;5053949;28;20040;-81
2023/03/22 07:28:11;;;;;;;30.73;13.48;;;9.80;99.90;;;;;;5036450;28;20122;-81
2023/03/22 07:30:37;;;;;;;30.00;15.30;;;9.80;99.90;;;;;;5036200;28;20183;-81
2023/03/22 07:33:05;;;;;;;29.83;12.90;;;9.80;99.90;;;;;;5054130;28;20045;-81
2023/03/22 07:35:30;;;;;;;30.52;15.30;;;9.90;99.90;;;;;;5054034;28;20045;-81
2023/03/22 07:37:56;;;;;;;34.58;14.70;;;10.00;99.90;;;;;;5054016;28;20052;-81
2023/03/22 07:40:22;;;;;;;39.65;16.08;;;10.00;99.90;;;;;;5036191;28;20216;-81
2023/03/22 07:42:49;;;;;;;36.80;15.90;;;10.00;99.90;;;;;;5036206;28;20099;-80
2023/03/22 07:45:16;;;;;;;31.85;13.02;;;10.00;99.90;;;;;;5053746;28;20167;-80
2023/03/22 07:47:42;;;;;;;33.25;14.75;;;10.00;99.90;;;;;;5035938;28;20040;-81
2023/03/22 07:50:11;;;;;;;33.90;14.75;;;10.00;99.90;;;;;;5036073;28;20087;-81
2023/03/22 07:52:37;;;;;;;39.15;15.65;;;10.10;99.90;;;;;;5053624;28;20049;-81
2023/03/22 07:55:03;;;;;;;29.30;14.10;;;10.10;99.90;;;;;;5035822;28;20511;-81
2023/03/22 07:57:29;;;;;;;34.08;14.05;;;10.10;99.90;;;;;;5035703;28;20077;-81
2023/03/22 07:59:55;;;;;;;33.05;13.43;;;10.20;99.90;;;;;;5053713;28;20076;-82
2023/03/22 08:02:22;;;;;;;40.85;15.73;;;10.20;99.90;;;;;;5035687;28;20048;-82
2023/03/22 08:04:51;;;;;;;36.63;14.23;;;10.20;99.90;;;;;;5035345;28;20053;-81
2023/03/22 08:07:17;;;;;;;29.05;14.93;;;10.30;99.90;;;;;;5053443;28;20078;-82
2023/03/22 08:09:43;;;;;;;27.55;12.90;;;10.30;99.90;;;;;;5035533;28;20076;-81
2023/03/22 08:12:09;;;;;;;37.42;13.77;;;10.30;99.90;;;;;;5035444;28;20491;-82
2023/03/22 08:14:36;;;;;;;29.30;12.80;;;10.40;99.90;;;;;;5035702;28;20029;-82
2023/03/22 08:17:05;;;;;;;25.90;11.55;;;10.40;99.90;;;;;;5053372;28;20046;-83
2023/03/22 08:19:32;;;;;;;28.38;12.65;;;10.40;99.90;;;;;;5035400;28;20111;-83
2023/03/22 08:21:58;;;;;;;31.10;11.65;;;10.40;99.90;;;;;;5035875;28;20410;-82
2023/03/22 08:24:25;;;;;;;27.45;10.98;;;10.50;99.90;;;;;;5035403;28;20520;-82
2023/03/22 08:26:51;;;;;;;18.40;9.15;;;10.50;99.90;;;;;;5035708;28;20048;-82
2023/03/22 08:29:17;;;;;;;24.08;10.82;;;10.50;99.90;;;;;;5035610;28;20562;-83
2023/03/22 08:31:43;;;;;;;21.80;11.02;;;10.50;99.90;;;;;;5034370;28;20045;-85
2023/03/22 08:34:09;;;;;;;23.75;10.98;;;10.60;99.90;;;;;;5035132;28;20518;-84
2023/03/22 08:36:37;;;;;;;26.75;11.05;;;10.60;99.90;;;;;;5034997;28;20084;-79
2023/03/22 08:39:03;;;;;;;28.02;9.80;;;10.60;99.90;;;;;;5052875;28;20041;-80
2023/03/22 08:41:29;;;;;;;18.33;9.48;;;10.70;99.90;;;;;;5035317;28;20037;-85
2023/03/22 08:43:56;;;;;;;28.77;9.60;;;10.70;99.90;;;;;;5035041;28;20132;-85
2023/03/22 08:46:22;;;;;;;22.77;10.75;;;10.80;99.90;;;;;;5035014;28;20056;-84
2023/03/22 08:48:49;;;;;;;24.60;9.40;;;10.80;99.90;;;;;;5053037;28;20045;-84
2023/03/22 08:51:19;;;;;;;18.23;9.98;;;10.90;99.90;;;;;;5022498;28;20045;-84
2023/03/22 08:53:46;;;;;;;27.70;9.82;;;10.80;99.90;;;;;;5033173;28;20056;-84
2023/03/22 08:56:13;;;;;;;23.02;9.75;;;10.80;99.90;;;;;;5032965;28;20060;-84
2023/03/22 08:58:41;;;;;;;18.27;9.18;;;10.70;99.90;;;;;;5015371;28;20061;-82
2023/03/22 09:01:10;;;;;;;24.70;9.68;;;10.70;99.90;;;;;;5032717;28;20045;-82
2023/03/22 09:03:39;;;;;;;28.05;10.27;;;10.70;99.90;;;;;;5014748;28;20068;-82
2023/03/22 09:06:05;;;;;;;25.90;9.40;;;10.60;99.90;;;;;;5033023;28;20049;-83
2023/03/22 09:08:32;;;;;;;23.30;8.48;;;10.60;99.90;;;;;;5014987;28;20105;-83
2023/03/22 09:10:58;;;;;;;20.15;9.02;;;10.60;99.90;;;;;;5033050;28;20117;-82
2023/03/22 09:13:24;;;;;;;22.40;9.55;;;10.50;99.90;;;;;;5015092;28;20128;-83
2023/03/22 09:15:51;;;;;;;23.08;8.02;;;10.50;99.90;;;;;;5014828;28;20184;-83
2023/03/22 09:18:17;;;;;;;19.70;8.70;;;10.50;99.90;;;;;;5017345;28;20046;-84
2023/03/22 09:20:44;;;;;;;23.85;8.48;;;10.40;99.90;;;;;;5018570;28;20057;-84
2023/03/22 09:23:16;;;;;;;21.15;8.95;;;10.30;99.90;;;;;;5036189;28;20501;-84
2023/03/22 09:25:46;;;;;;;19.17;8.15;;;10.30;99.90;;;;;;5018657;28;20057;-83
2023/03/22 09:28:12;;;;;;;26.63;9.23;;;10.30;99.90;;;;;;5018702;28;20045;-83
2023/03/22 09:30:38;;;;;;;20.05;8.10;;;10.30;99.90;;;;;;5018749;28;20052;-82
2023/03/22 09:33:05;;;;;;;21.73;8.82;;;10.30;99.90;;;;;;5036463;28;20096;-83
2023/03/22 09:35:33;;;;;;;17.85;8.27;;;10.30;99.90;;;;;;5018438;28;20046;-83
2023/03/22 09:37:59;;;;;;;21.45;8.32;;;10.20;99.90;;;;;;5018653;28;20050;-82
2023/03/22 09:40:30;;;;;;;21.85;7.70;;;10.30;99.90;;;;;;5035860;28;20041;-85
2023/03/22 09:43:05;;;;;;;21.70;8.60;;;10.20;99.90;;;;;;5036064;28;20129;-85
2023/03/22 09:45:45;;;;;;;21.55;8.75;;;10.20;99.90;;;;;;5018419;28;20052;-82
2023/03/22 09:48:15;;;;;;;19.35;6.63;;;10.20;99.90;;;;;;5036159;28;20045;-82
2023/03/22 09:50:48;;;;;;;24.73;8.93;;;10.20;99.90;;;;;;5018241;28;20041;-82
2023/03/22 09:53:15;;;;;;;18.80;7.40;;;10.10;99.90;;;;;;5018263;28;20053;-82
2023/03/22 09:55:54;;;;;;;27.27;9.20;;;10.10;99.90;;;;;;5017765;28;20131;-82
2023/03/22 09:58:26;;;;;;;16.70;7.38;;;10.10;99.90;;;;;;5018237;28;20107;-82
2023/03/22 10:01:10;;;;;;;21.70;8.90;;;10.10;99.90;;;;;;5017891;28;20373;-82
2023/03/22 10:04:15;;;;;;;21.20;7.97;;;10.10;99.90;;;;;;5017747;28;20144;-83
2023/03/22 10:06:50;;;;;;;18.30;7.97;;;10.10;99.90;;;;;;5017718;28;20385;-81
2023/03/22 10:09:36;;;;;;;22.02;9.35;;;10.10;99.90;;;;;;5035772;28;20155;-82
2023/03/22 10:12:24;;;;;;;23.40;8.60;;;10.00;99.90;;;;;;5035486;28;20044;-85
2023/03/22 10:15:13;;;;;;;18.55;7.57;;;9.90;99.90;;;;;;5017559;28;20412;-81
2023/03/22 10:17:43;;;;;;;24.75;8.45;;;10.00;99.90;;;;;;5017464;28;20397;-82
2023/03/22 10:20:30;;;;;;;22.80;9.82;;;10.00;99.90;;;;;;5035537;28;20048;-82
2023/03/22 10:23:00;;;;;;;21.67;7.70;;;9.90;99.90;;;;;;5035233;28;20049;-82
2023/03/22 10:25:40;;;;;;;21.88;6.93;;;9.90;99.90;;;;;;5034918;28;20045;-83
2023/03/22 10:28:15;;;;;;;15.95;6.95;;;9.80;99.90;;;;;;5041380;28;20037;-84
2023/03/22 10:30:49;;;;;;;21.63;7.13;;;9.80;99.90;;;;;;5055010;28;20091;-85
2023/03/22 10:33:52;;;;;;;15.25;7.72;;;9.90;99.90;;;;;;5055183;28;20091;-85
2023/03/22 10:36:23;;;;;;;13.23;6.55;;;9.90;99.90;;;;;;5053962;28;20056;-85
2023/03/22 10:38:59;;;;;;;17.73;6.95;;;9.90;99.90;;;;;;5054880;28;20056;-84
2023/03/22 10:41:27;;;;;;;18.20;6.70;;;9.80;99.90;;;;;;5054643;28;20124;-84
2023/03/22 10:43:57;;;;;;;17.50;6.78;;;9.90;99.90;;;;;;5053729;28;20113;-83
2023/03/22 10:46:31;;;;;;;13.90;5.68;;;9.80;99.90;;;;;;5053519;28;20049;-83
2023/03/22 10:48:59;;;;;;;14.48;6.05;;;9.80;99.90;;;;;;5054807;28;20098;-83
2023/03/22 10:51:33;;;;;;;14.05;6.15;;;9.80;99.90;;;;;;5053435;28;20060;-84
2023/03/22 10:54:00;;;;;;;15.75;6.00;;;9.80;99.90;;;;;;5054373;28;20049;-83
2023/03/22 10:56:26;;;;;;;23.48;8.05;;;9.90;99.90;;;;;;5054745;28;20037;-83
2023/03/22 10:58:54;;;;;;;16.83;6.72;;;9.90;99.90;;;;;;5053537;28;20392;-83
2023/03/22 11:01:31;;;;;;;14.50;6.20;;;9.90;99.90;;;;;;5054297;28;20056;-83
2023/03/22 11:04:03;;;;;;;20.10;6.75;;;9.90;99.90;;;;;;5052927;28;20053;-83
2023/03/22 11:06:35;;;;;;;18.83;6.85;;;9.90;99.90;;;;;;5053029;28;20186;-83
2023/03/22 11:09:11;;;;;;;18.65;7.47;;;9.90;99.90;;;;;;5035728;28;20048;-83
2023/03/22 11:11:55;;;;;;;16.52;6.22;;;9.90;99.90;;;;;;5016933;28;20055;-84
2023/03/22 11:14:35;;;;;;;13.70;5.75;;;9.90;99.90;;;;;;5016453;28;20084;-83
2023/03/22 11:17:11;;;;;;;16.67;6.80;;;10.00;99.90;;;;;;5016624;28;20049;-83
2023/03/22 11:19:58;;;;;;;19.52;7.35;;;10.10;99.90;;;;;;5016448;28;20037;-82
2023/03/22 11:22:30;;;;;;;16.33;6.38;;;10.00;99.90;;;;;;5016535;28;20068;-82
2023/03/22 11:24:57;;;;;;;19.63;7.13;;;10.10;99.90;;;;;;5033964;28;20477;-82
2023/03/22 11:27:30;;;;;;;16.08;7.03;;;10.00;99.90;;;;;;5016276;28;20045;-82
2023/03/22 11:30:23;;;;;;;20.35;7.50;;;10.10;99.90;;;;;;5016843;28;20045;-82
2023/03/22 11:32:58;;;;;;;15.45;6.65;;;10.10;99.90;;;;;;5025697;28;20643;-83
2023/03/22 11:35:25;;;;;;;24.05;7.97;;;10.10;99.90;;;;;;5016105;28;20091;-82
2023/03/22 11:37:54;;;;;;;24.33;8.07;;;10.10;99.90;;;;;;5033873;28;20061;-83
2023/03/22 11:40:21;;;;;;;19.98;6.95;;;10.20;99.90;;;;;;5015736;28;20033;-82
2023/03/22 11:42:51;;;;;;;17.85;6.40;;;10.00;99.90;;;;;;5016038;28;20041;-82
2023/03/22 11:45:25;;;;;;;18.05;7.18;;;10.10;99.90;;;;;;5016183;28;20045;-82
2023/03/22 11:47:52;;;;;;;18.15;7.53;;;10.10;99.90;;;;;;5015950;28;20053;-82
2023/03/22 11:50:38;;;;;;;19.23;7.72;;;10.10;99.90;;;;;;5016083;28;20147;-81
2023/03/22 11:53:09;;;;;;;17.98;7.38;;;10.10;99.90;;;;;;5018868;28;20419;-81
2023/03/22 11:55:35;;;;;;;19.30;7.43;;;10.10;99.90;;;;;;5036079;28;20049;-82
2023/03/22 11:58:02;;;;;;;20.40;8.15;;;10.10;99.90;;;;;;5016128;28;20038;-82
2023/03/22 12:00:36;;;;;;;14.63;6.80;;;10.10;99.90;;;;;;5038989;28;20404;-83
2023/03/22 12:03:15;;;;;;;20.95;7.28;;;10.10;99.90;;;;;;5043057;28;20554;-83
2023/03/22 12:05:45;;;;;;;18.77;6.88;;;10.10;99.90;;;;;;5052048;28;20085;-82
2023/03/22 12:08:24;;;;;;;14.80;7.03;;;10.10;99.90;;;;;;5053620;28;20041;-82
2023/03/22 12:10:56;;;;;;;16.52;7.75;;;10.10;99.90;;;;;;5053158;28;20060;-81
2023/03/22 12:13:35;;;;;;;19.47;7.43;;;10.10;99.90;;;;;;5051544;28;20048;-82
2023/03/22 12:16:04;;;;;;;19.88;7.25;;;10.10;99.90;;;;;;5052071;28;20311;-86
2023/03/22 12:18:43;;;;;;;26.55;8.65;;;10.10;99.90;;;;;;5052041;28;20071;-83
2023/03/22 12:21:12;;;;;;;18.58;8.95;;;10.10;99.90;;;;;;5051939;28;20046;-86
2023/03/22 12:23:38;;;;;;;21.77;8.90;;;10.10;99.90;;;;;;5052960;28;20127;-82
2023/03/22 12:26:25;;;;;;;19.60;7.88;;;10.10;99.90;;;;;;5051756;28;20049;-82
2023/03/22 12:29:01;;;;;;;20.88;9.38;;;10.10;99.90;;;;;;5051683;28;20076;-82
2023/03/22 12:31:29;;;;;;;17.83;8.15;;;10.10;99.90;;;;;;5051916;28;20048;-82
2023/03/22 12:33:58;;;;;;;20.17;9.15;;;10.20;99.90;;;;;;5051613;28;20060;-82
2023/03/22 12:36:40;;;;;;;22.30;8.90;;;10.10;99.90;;;;;;5051701;28;20041;-84
2023/03/22 12:39:11;;;;;;;26.25;10.65;;;10.10;99.90;;;;;;5051728;28;20132;-84
2023/03/22 12:41:42;;;;;;;18.98;10.15;;;10.20;99.90;;;;;;5052991;28;20086;-84
2023/03/22 12:44:23;;;;;;;21.83;9.02;;;10.10;99.90;;;;;;5051935;28;20484;-84
2023/03/22 12:46:55;;;;;;;21.15;9.05;;;10.20;99.90;;;;;;5051700;28;20045;-83
2023/03/22 12:49:43;;;;;;;31.02;9.60;;;10.20;99.90;;;;;;5051679;28;20053;-83
2023/03/22 12:52:30;;;;;;;20.00;9.05;;;10.20;99.90;;;;;;5055168;28;20408;-83
2023/03/22 12:54:59;;;;;;;18.50;8.13;;;10.20;99.90;;;;;;5055635;28;20484;-82
2023/03/22 12:57:26;;;;;;;21.98;9.30;;;10.20;99.90;;;;;;5055708;28;20037;-82
2023/03/22 12:59:55;;;;;;;21.27;9.50;;;10.10;99.90;;;;;;5055737;28;20052;-84